Time,TemperatureF,DewpointF,PressureIn,WindDirection,WindDirectionDegrees,WindSpeedMPH,WindSpeedGustMPH,Humidity,HourlyPrecipIn,Conditions,Clouds,dailyrainin,SoftwareType,DateUTC
2015-09-04 00:14:00,67.7,65.0,29.95,ENE,67,0.0,-999.0,92,-99.99,,,0.00,weatherlink.com 1.10,2015-09-04 05:14:00,
2015-09-04 00:29:00,67.7,65.0,29.95,ENE,67,0.0,-999.0,91,-99.99,,,0.00,weatherlink.com 1.10,2015-09-04 05:29:00,
2015-09-04 00:44:00,67.8,65.0,29.95,ENE,67,0.0,-999.0,90,-99.99,,,0.00,weatherlink.com 1.10,2015-09-04 05:44:00,
2015-09-04 00:59:00,67.7,65.0,29.95,ENE,67,0.0,-999.0,90,-99.99,,,0.00,weatherlink.com 1.10,2015-09-04 05:59:00,
2015-09-04 01:14:00,67.5,65.0,29.96,ENE,67,0.0,-999.0,90,-99.99,,,0.00,weatherlink.com 1.10,2015-09-04 06:14:00,
2015-09-04 01:29:00,67.4,65.0,29.96,ENE,67,0.0,-999.0,90,-99.99,,,0.00,weatherlink.com 1.10,2015-09-04 06:29:00,
2015-09-04 01:44:00,67.2,65.0,29.95,ENE,67,0.0,-999.0,91,-99.99,,,0.00,weatherlink.com 1.10,2015-09-04 06:44:00,
2015-09-04 01:59:00,67.1,65.0,29.96,ENE,67,0.0,-999.0,91,-99.99,,,0.00,weatherlink.com 1.10,2015-09-04 06:59:00,
2015-09-04 02:14:00,66.9,64.0,29.96,ENE,67,1.0,-999.0,91,-99.99,,,0.00,weatherlink.com 1.10,2015-09-04 07:14:00,
2015-09-04 02:29:00,66.5,64.0,29.96,ENE,67,0.0,-999.0,92,-99.99,,,0.00,weatherlink.com 1.10,2015-09-04 07:29:00,
2015-09-04 02:44:00,66.3,64.0,29.96,ENE,67,0.0,-999.0,92,-99.99,,,0.00,weatherlink.com 1.10,2015-09-04 07:44:00,
2015-09-04 03:00:00,66.2,64.0,29.97,ENE,67,0.0,-999.0,92,-99.99,,,0.00,weatherlink.com 1.10,2015-09-04 08:00:00,
2015-09-04 03:15:00,66.1,64.0,29.97,ENE,67,1.0,-999.0,92,-99.99,,,0.00,weatherlink.com 1.10,2015-09-04 08:15:00,
2015-09-04 03:30:00,66.0,64.0,29.97,ENE,67,0.0,-999.0,92,-99.99,,,0.00,weatherlink.com 1.10,2015-09-04 08:30:00,
2015-09-04 03:45:00,65.7,63.0,29.98,ENE,67,0.0,-999.0,92,-99.99,,,0.00,weatherlink.com 1.10,2015-09-04 08:45:00,
2015-09-04 04:00:00,65.6,63.0,29.97,ENE,67,2.0,-999.0,92,-99.99,,,0.00,weatherlink.com 1.10,2015-09-04 09:00:00,
2015-09-04 04:15:00,65.4,63.0,29.97,ENE,67,0.0,-999.0,93,-99.99,,,0.00,weatherlink.com 1.10,2015-09-04 09:15:00,
2015-09-04 04:30:00,65.2,63.0,29.97,ENE,67,2.0,-999.0,93,-99.99,,,0.00,weatherlink.com 1.10,2015-09-04 09:30:00,
2015-09-04 04:45:00,65.0,63.0,29.97,ENE,67,0.0,-999.0,93,-99.99,,,0.00,weatherlink.com 1.10,2015-09-04 09:45:00,
2015-09-04 05:00:00,64.9,63.0,29.97,ENE,67,0.0,-999.0,93,-99.99,,,0.00,weatherlink.com 1.10,2015-09-04 10:00:00,
2015-09-04 05:15:00,64.7,63.0,29.97,ENE,67,1.0,-999.0,94,-99.99,,,0.00,weatherlink.com 1.10,2015-09-04 10:15:00,
2015-09-04 05:30:00,64.5,63.0,29.97,ENE,67,3.0,-999.0,94,-99.99,,,0.00,weatherlink.com 1.10,2015-09-04 10:30:00,
2015-09-04 05:45:00,64.4,63.0,29.98,ENE,65,1.0,-999.0,94,-99.99,,,0.00,weatherlink.com 1.10,2015-09-04 10:45:00,
2015-09-04 06:00:00,64.3,63.0,29.98,ENE,72,2.0,-999.0,94,-99.99,,,0.00,weatherlink.com 1.10,2015-09-04 11:00:00,
2015-09-04 06:15:00,64.1,63.0,29.98,ENE,67,0.0,-999.0,95,-99.99,,,0.00,weatherlink.com 1.10,2015-09-04 11:15:00,
2015-09-04 06:30:00,63.9,63.0,29.98,ENE,78,5.0,-999.0,95,-99.99,,,0.00,weatherlink.com 1.10,2015-09-04 11:30:00,
2015-09-04 06:45:00,63.8,62.0,29.99,East,101,0.0,-999.0,95,-99.99,,,0.00,weatherlink.com 1.10,2015-09-04 11:45:00,
2015-09-04 07:00:00,63.8,62.0,29.99,East,90,4.0,-999.0,95,-99.99,,,0.00,weatherlink.com 1.10,2015-09-04 12:00:00,
2015-09-04 07:15:00,63.8,62.0,29.99,ENE,75,3.0,-999.0,95,-99.99,,,0.00,weatherlink.com 1.10,2015-09-04 12:15:00,
2015-09-04 07:45:00,63.6,63.0,30.00,ENE,76,2.0,-999.0,96,-99.99,,,0.00,weatherlink.com 1.10,2015-09-04 12:45:00,
2015-09-04 08:00:00,63.7,63.0,30.00,ENE,62,5.0,-999.0,96,-99.99,,,0.00,weatherlink.com 1.10,2015-09-04 13:00:00,
2015-09-04 08:15:00,64.0,63.0,30.00,East,80,0.0,-999.0,96,-99.99,,,0.00,weatherlink.com 1.10,2015-09-04 13:15:00,
2015-09-04 08:30:00,64.1,63.0,30.00,East,92,1.0,-999.0,96,-99.99,,,0.00,weatherlink.com 1.10,2015-09-04 13:30:00,
2015-09-04 08:45:00,64.2,63.0,30.01,ESE,103,4.0,-999.0,96,-99.99,,,0.00,weatherlink.com 1.10,2015-09-04 13:45:00,
2015-09-04 09:00:00,64.3,63.0,30.01,ENE,60,0.0,-999.0,96,-99.99,,,0.00,weatherlink.com 1.10,2015-09-04 14:00:00,
2015-09-04 09:15:00,64.5,63.0,30.01,East,84,0.0,-999.0,96,-99.99,,,0.00,weatherlink.com 1.10,2015-09-04 14:15:00,
2015-09-04 09:30:00,64.7,64.0,30.02,ENE,74,2.0,-999.0,96,-99.99,,,0.00,weatherlink.com 1.10,2015-09-04 14:30:00,
2015-09-04 09:45:00,65.1,64.0,30.02,ENE,73,2.0,-999.0,95,-99.99,,,0.00,weatherlink.com 1.10,2015-09-04 14:45:00,
2015-09-04 10:00:00,65.7,64.0,30.03,ESE,108,0.0,-999.0,94,-99.99,,,0.00,weatherlink.com 1.10,2015-09-04 15:00:00,
2015-09-04 10:15:00,66.6,65.0,30.03,South,189,2.0,-999.0,93,-99.99,,,0.00,weatherlink.com 1.10,2015-09-04 15:15:00,
2015-09-04 10:30:00,67.4,65.0,30.03,SSW,207,0.0,-999.0,92,-99.99,,,0.00,weatherlink.com 1.10,2015-09-04 15:30:00,
2015-09-04 10:45:00,68.2,65.0,30.03,South,182,0.0,-999.0,90,-99.99,,,0.00,weatherlink.com 1.10,2015-09-04 15:45:00,
2015-09-04 11:00:00,68.8,65.0,30.03,South,170,0.0,-999.0,88,-99.99,,,0.00,weatherlink.com 1.10,2015-09-04 16:00:00,
2015-09-04 11:15:00,69.1,66.0,30.02,SSE,151,0.0,-999.0,89,-99.99,,,0.00,weatherlink.com 1.10,2015-09-04 16:15:00,
2015-09-04 11:30:00,70.0,66.0,30.02,ESE,112,0.0,-999.0,87,-99.99,,,0.00,weatherlink.com 1.10,2015-09-04 16:30:00,
2015-09-04 11:45:00,71.3,67.0,30.02,SE,140,0.0,-999.0,85,-99.99,,,0.00,weatherlink.com 1.10,2015-09-04 16:45:00,
2015-09-04 12:00:00,72.1,67.0,30.02,ESE,102,0.0,-999.0,83,-99.99,,,0.00,weatherlink.com 1.10,2015-09-04 17:00:00,
2015-09-04 12:15:00,72.7,67.0,30.01,ESE,109,0.0,-999.0,82,-99.99,,,0.00,weatherlink.com 1.10,2015-09-04 17:15:00,
2015-09-04 12:30:00,74.9,68.0,30.01,NE,39,0.0,-999.0,79,-99.99,,,0.00,weatherlink.com 1.10,2015-09-04 17:30:00,
2015-09-04 12:46:00,75.9,69.0,30.00,ENE,74,0.0,-999.0,78,-99.99,,,0.00,weatherlink.com 1.10,2015-09-04 17:46:00,
2015-09-04 13:01:00,76.4,68.0,30.01,ESE,106,0.0,-999.0,76,-99.99,,,0.00,weatherlink.com 1.10,2015-09-04 18:01:00,
2015-09-04 13:16:00,76.9,69.0,30.00,ENE,73,0.0,-999.0,76,-99.99,,,0.00,weatherlink.com 1.10,2015-09-04 18:16:00,
2015-09-04 13:31:00,78.9,69.0,30.00,South,169,0.0,-999.0,72,-99.99,,,0.00,weatherlink.com 1.10,2015-09-04 18:31:00,
2015-09-04 13:46:00,80.2,69.0,30.00,SSE,149,0.0,-999.0,69,-99.99,,,0.00,weatherlink.com 1.10,2015-09-04 18:46:00,
2015-09-04 14:01:00,78.9,69.0,30.00,ENE,70,5.0,-999.0,71,-99.99,,,0.00,weatherlink.com 1.10,2015-09-04 19:01:00,
2015-09-04 14:16:00,79.7,70.0,29.99,ENE,65,0.0,-999.0,71,-99.99,,,0.00,weatherlink.com 1.10,2015-09-04 19:16:00,
2015-09-04 14:30:00,79.7,69.0,29.99,ENE,71,4.0,-999.0,70,-99.99,,,0.00,weatherlink.com 1.10,2015-09-04 19:30:00,
2015-09-04 14:46:00,80.2,70.0,29.99,ENE,74,2.0,-999.0,70,-99.99,,,0.00,weatherlink.com 1.10,2015-09-04 19:46:00,
2015-09-04 15:01:00,80.4,70.0,29.99,East,98,5.0,-999.0,70,-99.99,,,0.00,weatherlink.com 1.10,2015-09-04 20:01:00,
2015-09-04 15:16:00,80.8,69.0,29.99,ENE,63,0.0,-999.0,68,-99.99,,,0.00,weatherlink.com 1.10,2015-09-04 20:16:00,
2015-09-04 15:31:00,82.0,70.0,29.98,ESE,103,1.0,-999.0,66,-99.99,,,0.00,weatherlink.com 1.10,2015-09-04 20:31:00,
2015-09-04 15:46:00,82.4,70.0,29.98,East,95,0.0,-999.0,67,-99.99,,,0.00,weatherlink.com 1.10,2015-09-04 20:46:00,
2015-09-04 16:01:00,80.8,69.0,29.98,ENE,62,2.0,-999.0,68,-99.99,,,0.00,weatherlink.com 1.10,2015-09-04 21:01:00,
2015-09-04 16:16:00,80.4,69.0,29.98,ENE,63,1.0,-999.0,69,-99.99,,,0.00,weatherlink.com 1.10,2015-09-04 21:16:00,
2015-09-04 16:31:00,80.2,69.0,29.97,NE,55,5.0,-999.0,69,-99.99,,,0.00,weatherlink.com 1.10,2015-09-04 21:31:00,
2015-09-04 16:46:00,80.6,70.0,29.97,East,89,2.0,-999.0,69,-99.99,,,0.00,weatherlink.com 1.10,2015-09-04 21:46:00,
2015-09-04 17:01:00,80.7,70.0,29.97,ESE,115,0.0,-999.0,69,-99.99,,,0.00,weatherlink.com 1.10,2015-09-04 22:01:00,
2015-09-04 17:16:00,79.9,70.0,29.98,East,86,4.0,-999.0,71,-99.99,,,0.00,weatherlink.com 1.10,2015-09-04 22:16:00,
2015-09-04 17:31:00,79.5,70.0,29.98,East,97,4.0,-999.0,72,-99.99,,,0.00,weatherlink.com 1.10,2015-09-04 22:31:00,
2015-09-04 17:46:00,78.7,70.0,29.98,ESE,109,0.0,-999.0,74,-99.99,,,0.00,weatherlink.com 1.10,2015-09-04 22:46:00,
2015-09-04 18:01:00,78.2,70.0,29.98,East,85,2.0,-999.0,75,-99.99,,,0.00,weatherlink.com 1.10,2015-09-04 23:01:00,
2015-09-04 18:16:00,77.1,69.0,29.98,ENE,76,4.0,-999.0,77,-99.99,,,0.00,weatherlink.com 1.10,2015-09-04 23:16:00,
2015-09-04 18:31:00,76.4,69.0,29.98,ENE,67,8.0,-999.0,78,-99.99,,,0.00,weatherlink.com 1.10,2015-09-04 23:31:00,
2015-09-04 18:46:00,75.8,69.0,29.98,East,80,4.0,-999.0,79,-99.99,,,0.00,weatherlink.com 1.10,2015-09-04 23:46:00,
2015-09-04 19:01:00,74.8,69.0,29.99,ENE,63,6.0,-999.0,81,-99.99,,,0.00,weatherlink.com 1.10,2015-09-05 00:01:00,
2015-09-04 19:16:00,73.7,68.0,29.99,ENE,77,4.0,-999.0,83,-99.99,,,0.00,weatherlink.com 1.10,2015-09-05 00:16:00,
2015-09-04 19:31:00,72.7,68.0,29.99,SE,133,4.0,-999.0,84,-99.99,,,0.00,weatherlink.com 1.10,2015-09-05 00:31:00,
2015-09-04 19:46:00,71.9,67.0,30.00,NE,56,3.0,-999.0,85,-99.99,,,0.00,weatherlink.com 1.10,2015-09-05 00:46:00,
2015-09-04 20:01:00,71.4,67.0,30.00,East,85,2.0,-999.0,86,-99.99,,,0.00,weatherlink.com 1.10,2015-09-05 01:01:00,
2015-09-04 20:16:00,70.9,67.0,30.01,East,84,0.0,-999.0,87,-99.99,,,0.00,weatherlink.com 1.10,2015-09-05 01:16:00,
2015-09-04 20:31:00,70.4,66.0,30.02,East,84,1.0,-999.0,87,-99.99,,,0.00,weatherlink.com 1.10,2015-09-05 01:31:00,